Terminal Aerodrome Forecast
Issued by NWS

Home | Current Version | Previous Version | Graphics & Text | Print | Product List | Glossary Off
Versions: 1 2 3 4 5 6 7 8 9 10 11 12 13 14 15 16

025
FTUS43 KTOP 250858 AAB
TAFFOE
TAF AMD
KFOE 250858Z 2509/2606 21006KT 6SM TSRA SCT004 SCT025 BKN035CB
     FM251200 20009KT 5SM BR VCTS BKN035CB
     FM251400 33011KT P6SM SCT015 BKN050=

USA.gov is the U.S. government's official web portal to all federal, state and local government web resources and services.